createdAt,value
2023-12-31T00:00:19.933Z,-0.9999999999999432
2023-12-31T00:01:23.965Z,-0.9999999999999432
2023-12-31T00:02:27.943Z,-0.9999999999999432
2023-12-31T00:03:31.449Z,-0.9999999999999432
2023-12-31T00:04:31.402Z,-0.8888888888888573
2023-12-31T00:05:31.381Z,-0.8888888888888573
2023-12-31T00:06:31.383Z,-0.8888888888888573
2023-12-31T00:07:31.391Z,-0.9999999999999432
2023-12-31T00:08:32.327Z,-0.9999999999999432
2023-12-31T00:09:32.404Z,-0.9999999999999432
2023-12-31T00:10:32.566Z,-0.9999999999999432
2023-12-31T00:11:31.958Z,-0.9999999999999432
2023-12-31T00:12:32.383Z,-0.9999999999999432
2023-12-31T00:13:32.446Z,-0.9999999999999432
2023-12-31T00:14:32.395Z,-0.9999999999999432
2023-12-31T00:15:31.944Z,-0.9999999999999432
2023-12-31T00:16:32.461Z,-0.9999999999999432
2023-12-31T00:17:32.343Z,-0.9999999999999432
2023-12-31T00:18:32.442Z,-1.1111111111110858
2023-12-31T00:19:32.147Z,-1.1111111111110858
2023-12-31T00:20:32.368Z,-1.1111111111110858
2023-12-31T00:21:32.407Z,-0.9999999999999432
2023-12-31T00:22:32.373Z,-0.9999999999999432
2023-12-31T00:23:32.162Z,-0.9999999999999432
2023-12-31T00:24:32.501Z,-0.9999999999999432
2023-12-31T00:25:32.531Z,-0.9999999999999432
2023-12-31T00:26:32.536Z,-0.9999999999999432
2023-12-31T00:27:32.078Z,-0.9999999999999432
2023-12-31T00:28:32.545Z,-0.9999999999999432
2023-12-31T00:29:32.474Z,-0.9999999999999432
2023-12-31T00:30:32.593Z,-1.1111111111110858
2023-12-31T00:31:32.085Z,-1.1111111111110858
2023-12-31T00:32:32.586Z,-1.1111111111110858
2023-12-31T00:33:32.558Z,-1.1111111111110858
2023-12-31T00:34:32.499Z,-1.1111111111110858
2023-12-31T00:35:32.096Z,-1.1111111111110858
2023-12-31T00:36:32.666Z,-1.1111111111110858
2023-12-31T00:37:32.513Z,-1.1111111111110858
2023-12-31T00:38:32.580Z,-1.1111111111110858
2023-12-31T00:39:32.141Z,-1.1111111111110858
2023-12-31T00:40:32.495Z,-1.1111111111110858
2023-12-31T00:41:32.507Z,-1.1111111111110858
2023-12-31T00:42:32.584Z,-1.1111111111110858
2023-12-31T00:43:32.112Z,-1.1111111111110858
2023-12-31T00:44:32.430Z,-1.1111111111110858
2023-12-31T00:45:32.511Z,-1.1111111111110858
2023-12-31T00:46:32.614Z,-1.1111111111110858
2023-12-31T00:47:32.123Z,-1.2222222222221717
2023-12-31T00:48:32.480Z,-1.2222222222221717
2023-12-31T00:49:32.625Z,-1.2222222222221717
2023-12-31T00:50:32.498Z,-1.2222222222221717
2023-12-31T00:51:32.027Z,-1.2222222222221717
2023-12-31T00:52:32.456Z,-1.2222222222221717
2023-12-31T00:53:32.513Z,-1.2777777777777146
2023-12-31T00:54:32.481Z,-1.2777777777777146
2023-12-31T00:55:32.128Z,-1.2777777777777146
2023-12-31T00:56:32.418Z,-1.2777777777777146
2023-12-31T00:57:32.530Z,-1.2777777777777146
2023-12-31T00:58:32.503Z,-1.2222222222221717
2023-12-31T00:59:32.044Z,-1.2777777777777146
2023-12-31T01:00:32.519Z,-1.2777777777777146
2023-12-31T01:01:32.435Z,-1.2777777777777146
2023-12-31T01:02:32.393Z,-1.3888888888888573
2023-12-31T01:03:32.019Z,-1.3888888888888573
2023-12-31T01:04:32.492Z,-1.3888888888888573
2023-12-31T01:05:32.393Z,-1.3888888888888573
2023-12-31T01:06:32.427Z,-1.3888888888888573
2023-12-31T01:07:31.989Z,-1.3888888888888573
2023-12-31T01:08:32.329Z,-1.3888888888888573
2023-12-31T01:09:32.461Z,-1.3888888888888573
2023-12-31T01:10:32.397Z,-1.3888888888888573
2023-12-31T01:11:32.020Z,-1.3888888888888573
2023-12-31T01:12:32.444Z,-1.4999999999999432
2023-12-31T01:13:32.720Z,-1.4999999999999432
2023-12-31T01:14:32.523Z,-1.4999999999999432
2023-12-31T01:15:31.951Z,-1.4999999999999432
2023-12-31T01:16:32.358Z,-1.4999999999999432
2023-12-31T01:17:32.567Z,-1.4999999999999432
2023-12-31T01:18:32.408Z,-1.4999999999999432
2023-12-31T01:19:32.219Z,-1.4999999999999432
2023-12-31T01:20:32.436Z,-1.4999999999999432
2023-12-31T01:21:32.361Z,-1.4999999999999432
2023-12-31T01:22:32.433Z,-1.4999999999999432
2023-12-31T01:23:31.911Z,-1.611111111111029
2023-12-31T01:24:32.451Z,-1.611111111111029
2023-12-31T01:25:32.438Z,-1.611111111111029
2023-12-31T01:26:32.439Z,-1.611111111111029
2023-12-31T01:27:31.961Z,-1.611111111111029
2023-12-31T01:28:32.475Z,-1.611111111111029
2023-12-31T01:29:32.360Z,-1.611111111111029
2023-12-31T01:30:32.541Z,-1.611111111111029
2023-12-31T01:31:32.139Z,-1.611111111111029
2023-12-31T01:32:32.520Z,-1.611111111111029
2023-12-31T01:33:32.570Z,-1.611111111111029
2023-12-31T01:34:32.464Z,-1.611111111111029
2023-12-31T01:35:32.013Z,-1.611111111111029
2023-12-31T01:36:32.359Z,-1.611111111111029
2023-12-31T01:37:32.394Z,-1.7222222222221717
2023-12-31T01:38:32.405Z,-1.611111111111029
2023-12-31T01:39:31.882Z,-1.611111111111029
2023-12-31T01:40:32.339Z,-1.611111111111029
2023-12-31T01:41:32.472Z,-1.611111111111029
2023-12-31T01:42:32.331Z,-1.611111111111029
2023-12-31T01:43:31.996Z,-1.7222222222221717
2023-12-31T01:44:32.477Z,-1.7222222222221717
2023-12-31T01:45:32.420Z,-1.7222222222221717
2023-12-31T01:46:32.501Z,-1.7222222222221717
2023-12-31T01:47:32.039Z,-1.7222222222221717
2023-12-31T01:48:32.563Z,-1.7222222222221717
2023-12-31T01:49:32.387Z,-1.7222222222221717
2023-12-31T01:50:32.451Z,-1.7222222222221717
2023-12-31T01:51:31.924Z,-1.7777777777777146
2023-12-31T01:52:32.484Z,-1.7777777777777146
2023-12-31T01:53:32.360Z,-1.7777777777777146
2023-12-31T01:54:32.366Z,-1.7777777777777146
2023-12-31T01:55:32.045Z,-1.7222222222221717
2023-12-31T01:56:32.503Z,-1.7222222222221717
2023-12-31T01:57:32.480Z,-1.7777777777777146
2023-12-31T01:58:32.452Z,-1.7777777777777146
2023-12-31T01:59:32.031Z,-1.7777777777777146
2023-12-31T02:00:32.588Z,-1.7777777777777146
2023-12-31T02:01:32.465Z,-1.7777777777777146
2023-12-31T02:02:32.368Z,-1.7777777777777146
2023-12-31T02:03:32.090Z,-1.7777777777777146
2023-12-31T02:04:32.603Z,-1.7777777777777146
2023-12-31T02:05:32.414Z,-1.7777777777777146
2023-12-31T02:06:32.432Z,-1.7777777777777146
2023-12-31T02:07:31.993Z,-1.7777777777777146
2023-12-31T02:08:32.419Z,-1.7777777777777146
2023-12-31T02:09:32.357Z,-1.7777777777777146
2023-12-31T02:10:32.385Z,-1.7777777777777146
2023-12-31T02:11:32.014Z,-1.7777777777777146
2023-12-31T02:12:32.350Z,-1.7777777777777146
2023-12-31T02:13:32.366Z,-1.7777777777777146
2023-12-31T02:14:32.341Z,-1.7777777777777146
2023-12-31T02:15:31.918Z,-1.8888888888888573
2023-12-31T02:16:32.485Z,-1.8888888888888573
2023-12-31T02:17:32.536Z,-1.8888888888888573
2023-12-31T02:18:32.426Z,-1.9999999999999432
2023-12-31T02:19:32.131Z,-1.9999999999999432
2023-12-31T02:20:32.367Z,-1.9999999999999432
2023-12-31T02:21:32.339Z,-1.9999999999999432
2023-12-31T02:22:32.403Z,-1.9999999999999432
2023-12-31T02:23:31.943Z,-1.9999999999999432
2023-12-31T02:24:32.414Z,-1.8888888888888573
2023-12-31T02:25:32.586Z,-1.9999999999999432
2023-12-31T02:26:32.382Z,-1.9999999999999432
2023-12-31T02:27:31.923Z,-1.9999999999999432
2023-12-31T02:28:32.567Z,-1.9999999999999432
2023-12-31T02:29:32.356Z,-1.9999999999999432
2023-12-31T02:30:32.420Z,-1.9999999999999432
2023-12-31T02:31:32.045Z,-1.9999999999999432
2023-12-31T02:32:32.471Z,-1.9999999999999432
2023-12-31T02:33:32.528Z,-1.9999999999999432
2023-12-31T02:34:32.511Z,-1.9999999999999432
2023-12-31T02:35:31.941Z,-1.9999999999999432
2023-12-31T02:36:32.468Z,-1.9999999999999432
2023-12-31T02:37:32.360Z,-1.9999999999999432
2023-12-31T02:38:32.410Z,-1.9999999999999432
2023-12-31T02:39:31.914Z,-1.9999999999999432
2023-12-31T02:40:32.388Z,-1.9999999999999432
2023-12-31T02:41:32.382Z,-1.9999999999999432
2023-12-31T02:42:32.389Z,-1.9999999999999432
2023-12-31T02:43:32.101Z,-1.9999999999999432
2023-12-31T02:44:32.488Z,-1.9999999999999432
2023-12-31T02:45:32.397Z,-1.8888888888888573
2023-12-31T02:46:32.370Z,-1.8888888888888573
2023-12-31T02:47:32.158Z,-1.8888888888888573
2023-12-31T02:48:32.494Z,-1.8888888888888573
2023-12-31T02:49:32.421Z,-1.8888888888888573
2023-12-31T02:50:32.371Z,-1.8888888888888573
2023-12-31T02:51:31.936Z,-1.8888888888888573
2023-12-31T02:52:32.417Z,-1.9999999999999432
2023-12-31T02:53:32.460Z,-1.9999999999999432
2023-12-31T02:54:32.453Z,-1.9999999999999432
2023-12-31T02:55:32.027Z,-1.9999999999999432
2023-12-31T02:56:32.329Z,-1.9999999999999432
2023-12-31T02:57:32.366Z,-2.111111111111086
2023-12-31T02:58:32.403Z,-2.111111111111086
2023-12-31T02:59:31.903Z,-2.111111111111086
2023-12-31T03:00:32.493Z,-2.111111111111086
2023-12-31T03:01:32.651Z,-2.111111111111086
2023-12-31T03:02:32.345Z,-2.111111111111086
2023-12-31T03:03:32.046Z,-2.111111111111086
2023-12-31T03:04:32.329Z,-2.111111111111086
2023-12-31T03:05:32.481Z,-2.111111111111086
2023-12-31T03:06:32.327Z,-2.111111111111086
2023-12-31T03:07:32.100Z,-2.111111111111086
2023-12-31T03:08:32.452Z,-2.111111111111086
2023-12-31T03:09:32.375Z,-2.111111111111086
2023-12-31T03:10:32.419Z,-2.111111111111086
2023-12-31T03:11:31.925Z,-2.111111111111086
2023-12-31T03:12:32.327Z,-2.111111111111086
2023-12-31T03:13:32.554Z,-2.111111111111086
2023-12-31T03:14:32.338Z,-2.111111111111086
2023-12-31T03:15:31.923Z,-2.111111111111086
2023-12-31T03:16:32.593Z,-2.111111111111086
2023-12-31T03:17:32.711Z,-2.111111111111086
2023-12-31T03:18:32.406Z,-2.111111111111086
2023-12-31T03:19:32.336Z,-2.111111111111086
2023-12-31T03:20:32.318Z,-2.111111111111086
2023-12-31T03:21:32.385Z,-2.111111111111086
2023-12-31T03:22:41.507Z,-2.111111111111086
2023-12-31T03:23:32.055Z,-2.111111111111086
2023-12-31T03:24:32.316Z,-2.111111111111086
2023-12-31T03:25:32.399Z,-2.111111111111086
2023-12-31T03:26:32.332Z,-2.2222222222221717
2023-12-31T03:27:32.046Z,-2.2222222222221717
2023-12-31T03:28:32.355Z,-2.111111111111086
2023-12-31T03:29:32.343Z,-2.111111111111086
2023-12-31T03:30:32.486Z,-2.111111111111086
2023-12-31T03:31:32.137Z,-2.111111111111086
2023-12-31T03:32:32.554Z,-2.111111111111086
2023-12-31T03:33:32.510Z,-2.111111111111086
2023-12-31T03:34:32.532Z,-2.2222222222221717
2023-12-31T03:35:32.047Z,-2.2222222222221717
2023-12-31T03:36:32.421Z,-2.2222222222221717
2023-12-31T03:37:32.507Z,-2.2222222222221717
2023-12-31T03:38:32.395Z,-2.2222222222221717
2023-12-31T03:39:31.921Z,-2.2222222222221717
2023-12-31T03:40:32.336Z,-2.2777777777777715
2023-12-31T03:41:32.442Z,-2.2777777777777715
2023-12-31T03:42:32.312Z,-2.2777777777777715
2023-12-31T03:43:32.168Z,-2.2777777777777715
2023-12-31T03:44:32.419Z,-2.2777777777777715
2023-12-31T03:45:32.502Z,-2.2222222222221717
2023-12-31T03:46:32.406Z,-2.2222222222221717
2023-12-31T03:47:32.012Z,-2.2222222222221717
2023-12-31T03:48:32.610Z,-2.2777777777777715
2023-12-31T03:49:32.372Z,-2.2777777777777715
2023-12-31T03:50:32.320Z,-2.2777777777777715
2023-12-31T03:51:31.943Z,-2.2777777777777715
2023-12-31T03:52:32.427Z,-2.2777777777777715
2023-12-31T03:53:32.332Z,-2.2777777777777715
2023-12-31T03:54:32.406Z,-2.2777777777777715
2023-12-31T03:55:31.988Z,-2.2777777777777715
2023-12-31T03:56:32.709Z,-2.2777777777777715
2023-12-31T03:57:32.331Z,-2.2222222222221717
2023-12-31T03:58:32.390Z,-2.2222222222221717
2023-12-31T03:59:31.955Z,-2.2222222222221717
2023-12-31T04:00:32.406Z,-2.2222222222221717
2023-12-31T04:01:32.341Z,-2.2222222222221717
2023-12-31T04:02:32.403Z,-2.2777777777777715
2023-12-31T04:03:31.978Z,-2.2777777777777715
2023-12-31T04:04:32.505Z,-2.2777777777777715
2023-12-31T04:05:32.532Z,-2.2777777777777715
2023-12-31T04:06:33.059Z,-2.2777777777777715
2023-12-31T04:07:31.971Z,-2.2777777777777715
2023-12-31T04:08:32.336Z,-2.2222222222221717
2023-12-31T04:09:32.327Z,-2.2222222222221717
2023-12-31T04:10:32.397Z,-2.2222222222221717
2023-12-31T04:11:31.940Z,-2.2777777777777715
2023-12-31T04:12:32.315Z,-2.2777777777777715
2023-12-31T04:13:32.439Z,-2.2777777777777715
2023-12-31T04:14:32.358Z,-2.2777777777777715
2023-12-31T04:15:31.921Z,-2.2777777777777715
2023-12-31T04:16:32.482Z,-2.2777777777777715
2023-12-31T04:17:32.370Z,-2.2777777777777715
2023-12-31T04:18:32.522Z,-2.2777777777777715
2023-12-31T04:19:31.952Z,-2.2777777777777715
2023-12-31T04:20:32.320Z,-2.2222222222221717
2023-12-31T04:21:32.328Z,-2.2222222222221717
2023-12-31T04:22:32.368Z,-2.2222222222221717
2023-12-31T04:23:31.936Z,-2.2222222222221717
2023-12-31T04:24:32.329Z,-2.2222222222221717
2023-12-31T04:25:32.375Z,-2.2777777777777715
2023-12-31T04:26:32.340Z,-2.2777777777777715
2023-12-31T04:27:32.015Z,-2.2777777777777715
2023-12-31T04:28:32.368Z,-2.2777777777777715
2023-12-31T04:29:32.297Z,-2.2777777777777715
2023-12-31T04:30:32.428Z,-2.2777777777777715
2023-12-31T04:31:31.932Z,-2.2777777777777715
2023-12-31T04:32:32.362Z,-2.2777777777777715
2023-12-31T04:33:32.347Z,-2.2777777777777715
2023-12-31T04:34:32.377Z,-2.2777777777777715
2023-12-31T04:35:31.917Z,-2.2777777777777715
2023-12-31T04:36:32.312Z,-2.2222222222221717
2023-12-31T04:37:32.406Z,-2.2777777777777715
2023-12-31T04:38:32.338Z,-2.2777777777777715
2023-12-31T04:39:31.932Z,-2.2777777777777715
2023-12-31T04:40:32.385Z,-2.2777777777777715
2023-12-31T04:41:32.317Z,-2.2777777777777715
2023-12-31T04:42:32.347Z,-2.2777777777777715
2023-12-31T04:43:31.965Z,-2.2777777777777715
2023-12-31T04:44:32.320Z,-2.2777777777777715
2023-12-31T04:45:32.325Z,-2.2777777777777715
2023-12-31T04:46:32.397Z,-2.2777777777777715
2023-12-31T04:47:31.940Z,-2.2777777777777715
2023-12-31T04:48:32.322Z,-2.2777777777777715
2023-12-31T04:49:32.406Z,-2.3888888888888573
2023-12-31T04:50:32.472Z,-2.3888888888888573
2023-12-31T04:51:31.922Z,-2.3888888888888573
2023-12-31T04:52:32.323Z,-2.3888888888888573
2023-12-31T04:53:32.328Z,-2.3888888888888573
2023-12-31T04:54:32.317Z,-2.3888888888888573
2023-12-31T04:55:31.978Z,-2.3888888888888573
2023-12-31T04:56:32.326Z,-2.3888888888888573
2023-12-31T04:57:32.328Z,-2.3888888888888573
2023-12-31T04:58:32.460Z,-2.499999999999943
2023-12-31T04:59:31.935Z,-2.3888888888888573
2023-12-31T05:00:32.347Z,-2.3888888888888573
2023-12-31T05:01:32.389Z,-2.499999999999943
2023-12-31T05:02:32.331Z,-2.499999999999943
2023-12-31T05:03:31.963Z,-2.499999999999943
2023-12-31T05:04:32.399Z,-2.499999999999943
2023-12-31T05:05:32.340Z,-2.499999999999943
2023-12-31T05:06:32.301Z,-2.499999999999943
2023-12-31T05:07:31.914Z,-2.499999999999943
2023-12-31T05:08:32.353Z,-2.499999999999943
2023-12-31T05:09:32.340Z,-2.499999999999943
2023-12-31T05:10:32.347Z,-2.499999999999943
2023-12-31T05:11:31.937Z,-2.499999999999943
2023-12-31T05:12:32.368Z,-2.499999999999943
2023-12-31T05:13:32.378Z,-2.499999999999943
2023-12-31T05:14:32.325Z,-2.3888888888888573
2023-12-31T05:15:31.975Z,-2.3888888888888573
2023-12-31T05:16:32.407Z,-2.3888888888888573
2023-12-31T05:17:32.406Z,-2.3888888888888573
2023-12-31T05:18:32.342Z,-2.3888888888888573
2023-12-31T05:19:32.002Z,-2.3888888888888573
2023-12-31T05:20:32.340Z,-2.3888888888888573
2023-12-31T05:21:32.323Z,-2.499999999999943
2023-12-31T05:22:32.360Z,-2.499999999999943
2023-12-31T05:23:31.933Z,-2.499999999999943
2023-12-31T05:24:32.348Z,-2.499999999999943
2023-12-31T05:25:32.356Z,-2.499999999999943
2023-12-31T05:26:32.370Z,-2.499999999999943
2023-12-31T05:27:31.983Z,-2.499999999999943
2023-12-31T05:28:32.408Z,-2.499999999999943
2023-12-31T05:29:32.341Z,-2.499999999999943
2023-12-31T05:30:32.362Z,-2.499999999999943
2023-12-31T05:31:31.981Z,-2.499999999999943
2023-12-31T05:32:32.368Z,-2.499999999999943
2023-12-31T05:33:32.302Z,-2.499999999999943
2023-12-31T05:34:32.334Z,-2.499999999999943
2023-12-31T05:35:31.941Z,-2.499999999999943
2023-12-31T05:36:32.373Z,-2.499999999999943
2023-12-31T05:37:32.334Z,-2.499999999999943
2023-12-31T05:38:32.337Z,-2.499999999999943
2023-12-31T05:39:31.908Z,-2.499999999999943
2023-12-31T05:40:32.348Z,-2.611111111111086
2023-12-31T05:41:32.328Z,-2.611111111111086
2023-12-31T05:42:32.320Z,-2.611111111111086
2023-12-31T05:43:32.001Z,-2.611111111111086
2023-12-31T05:44:32.353Z,-2.611111111111086
2023-12-31T05:45:32.378Z,-2.611111111111086
2023-12-31T05:46:32.430Z,-2.611111111111086
2023-12-31T05:47:45.575Z,-2.611111111111086
2023-12-31T05:48:32.552Z,-2.611111111111086
2023-12-31T05:49:32.374Z,-2.611111111111086
2023-12-31T05:50:32.385Z,-2.7222222222221717
2023-12-31T05:51:31.924Z,-2.7222222222221717
2023-12-31T05:52:32.373Z,-2.7222222222221717
2023-12-31T05:53:32.338Z,-2.611111111111086
2023-12-31T05:54:32.305Z,-2.611111111111086
2023-12-31T05:55:31.974Z,-2.611111111111086
2023-12-31T05:56:32.357Z,-2.7222222222221717
2023-12-31T05:57:32.337Z,-2.7222222222221717
2023-12-31T05:58:32.344Z,-2.7222222222221717
2023-12-31T05:59:31.930Z,-2.7222222222221717
2023-12-31T06:00:32.387Z,-2.7222222222221717
2023-12-31T06:01:32.334Z,-2.611111111111086
2023-12-31T06:02:32.333Z,-2.611111111111086
2023-12-31T06:03:32.015Z,-2.611111111111086
2023-12-31T06:04:32.367Z,-2.611111111111086
2023-12-31T06:05:32.369Z,-2.611111111111086
2023-12-31T06:06:32.327Z,-2.611111111111086
2023-12-31T06:07:31.944Z,-2.611111111111086
2023-12-31T06:08:32.363Z,-2.611111111111086
2023-12-31T06:09:32.333Z,-2.611111111111086
2023-12-31T06:10:32.330Z,-2.611111111111086
2023-12-31T06:11:31.949Z,-2.611111111111086
2023-12-31T06:12:32.334Z,-2.611111111111086
2023-12-31T06:13:32.360Z,-2.611111111111086
2023-12-31T06:14:32.312Z,-2.611111111111086
2023-12-31T06:15:31.956Z,-2.7222222222221717
2023-12-31T06:16:32.439Z,-2.7222222222221717
2023-12-31T06:17:32.365Z,-2.611111111111086
2023-12-31T06:18:32.382Z,-2.7222222222221717
2023-12-31T06:19:31.968Z,-2.7222222222221717
2023-12-31T06:20:32.404Z,-2.7222222222221717
2023-12-31T06:21:32.305Z,-2.7222222222221717
2023-12-31T06:22:32.373Z,-2.7222222222221717
2023-12-31T06:23:31.951Z,-2.7222222222221717
2023-12-31T06:24:32.358Z,-2.7222222222221717
2023-12-31T06:25:32.415Z,-2.7222222222221717
2023-12-31T06:26:32.301Z,-2.7222222222221717
2023-12-31T06:27:31.913Z,-2.7222222222221717
2023-12-31T06:28:32.394Z,-2.611111111111086
2023-12-31T06:29:32.296Z,-2.611111111111086
2023-12-31T06:30:32.401Z,-2.611111111111086
2023-12-31T06:31:32.066Z,-2.611111111111086
2023-12-31T06:32:32.458Z,-2.611111111111086
2023-12-31T06:33:32.402Z,-2.611111111111086
2023-12-31T06:34:32.368Z,-2.611111111111086
2023-12-31T06:35:31.966Z,-2.611111111111086
2023-12-31T06:36:32.364Z,-2.611111111111086
2023-12-31T06:37:32.369Z,-2.611111111111086
2023-12-31T06:38:32.302Z,-2.611111111111086
2023-12-31T06:39:31.949Z,-2.611111111111086
2023-12-31T06:40:32.356Z,-2.611111111111086
2023-12-31T06:41:32.296Z,-2.611111111111086
2023-12-31T06:42:32.300Z,-2.7222222222221717
2023-12-31T06:43:31.948Z,-2.7222222222221717
2023-12-31T06:44:32.322Z,-2.7222222222221717
2023-12-31T06:45:32.347Z,-2.7222222222221717
2023-12-31T06:46:32.386Z,-2.611111111111086
2023-12-31T06:47:31.969Z,-2.7222222222221717
2023-12-31T06:48:32.414Z,-2.7222222222221717
2023-12-31T06:49:32.335Z,-2.7222222222221717
2023-12-31T06:50:32.325Z,-2.611111111111086
2023-12-31T06:51:31.938Z,-2.611111111111086
2023-12-31T06:52:32.374Z,-2.611111111111086
2023-12-31T06:53:32.294Z,-2.611111111111086
2023-12-31T06:54:32.351Z,-2.611111111111086
2023-12-31T06:55:31.963Z,-2.611111111111086
2023-12-31T06:56:32.312Z,-2.611111111111086
2023-12-31T06:57:32.313Z,-2.611111111111086
2023-12-31T06:58:32.332Z,-2.611111111111086
2023-12-31T06:59:31.924Z,-2.611111111111086
2023-12-31T07:00:32.364Z,-2.611111111111086
2023-12-31T07:01:32.385Z,-2.7222222222221717
2023-12-31T07:02:32.341Z,-2.611111111111086
2023-12-31T07:03:31.958Z,-2.611111111111086
2023-12-31T07:04:32.426Z,-2.611111111111086
2023-12-31T07:05:32.357Z,-2.611111111111086
2023-12-31T07:06:32.324Z,-2.611111111111086
2023-12-31T07:07:31.983Z,-2.7222222222221717
2023-12-31T07:08:32.379Z,-2.7222222222221717
2023-12-31T07:09:32.295Z,-2.7222222222221717
2023-12-31T07:10:32.310Z,-2.7222222222221717
2023-12-31T07:11:31.958Z,-2.7222222222221717
2023-12-31T07:12:32.374Z,-2.7222222222221717
2023-12-31T07:13:32.343Z,-2.7222222222221717
2023-12-31T07:14:32.303Z,-2.7222222222221717
2023-12-31T07:15:31.941Z,-2.7222222222221717
2023-12-31T07:16:32.386Z,-2.7222222222221717
2023-12-31T07:17:32.365Z,-2.7222222222221717
2023-12-31T07:18:32.388Z,-2.7222222222221717
2023-12-31T07:19:31.964Z,-2.7222222222221717
2023-12-31T07:20:32.361Z,-2.7222222222221717
2023-12-31T07:21:32.321Z,-2.7222222222221717
2023-12-31T07:22:32.354Z,-2.7222222222221717
2023-12-31T07:23:31.967Z,-2.7222222222221717
2023-12-31T07:24:32.330Z,-2.7222222222221717
2023-12-31T07:25:32.370Z,-2.7222222222221717
2023-12-31T07:26:32.308Z,-2.7222222222221717
2023-12-31T07:27:31.927Z,-2.7222222222221717
2023-12-31T07:28:32.383Z,-2.7222222222221717
2023-12-31T07:29:32.343Z,-2.7222222222221717
2023-12-31T07:30:32.384Z,-2.7222222222221717
2023-12-31T07:31:31.929Z,-2.7222222222221717
2023-12-31T07:32:32.343Z,-2.7222222222221717
2023-12-31T07:33:32.363Z,-2.7222222222221717
2023-12-31T07:34:32.323Z,-2.7222222222221717
2023-12-31T07:35:31.945Z,-2.7777777777777146
2023-12-31T07:36:32.343Z,-2.7777777777777146
2023-12-31T07:37:32.364Z,-2.7777777777777146
2023-12-31T07:38:32.347Z,-2.7777777777777146
2023-12-31T07:39:31.961Z,-2.7777777777777146
2023-12-31T07:40:32.392Z,-2.7222222222221717
2023-12-31T07:41:32.435Z,-2.7222222222221717
2023-12-31T07:42:32.321Z,-2.7222222222221717
2023-12-31T07:43:32.014Z,-2.7777777777777146
2023-12-31T07:44:32.361Z,-2.7222222222221717
2023-12-31T07:45:32.374Z,-2.7222222222221717
2023-12-31T07:46:32.323Z,-2.7222222222221717
2023-12-31T07:47:32.054Z,-2.7777777777777146
2023-12-31T07:48:32.423Z,-2.7777777777777146
2023-12-31T07:49:32.386Z,-2.7777777777777146
2023-12-31T07:50:32.362Z,-2.7777777777777146
2023-12-31T07:51:31.946Z,-2.7777777777777146
2023-12-31T07:52:32.369Z,-2.7777777777777146
2023-12-31T07:53:32.294Z,-2.7222222222221717
2023-12-31T07:54:32.399Z,-2.7222222222221717
2023-12-31T07:55:31.979Z,-2.7222222222221717
2023-12-31T07:56:32.347Z,-2.7222222222221717
2023-12-31T07:57:32.335Z,-2.7222222222221717
2023-12-31T07:58:32.430Z,-2.7222222222221717
2023-12-31T07:59:31.928Z,-2.7222222222221717
2023-12-31T08:00:32.388Z,-2.7222222222221717
2023-12-31T08:01:32.442Z,-2.7222222222221717
2023-12-31T08:02:32.345Z,-2.7222222222221717
2023-12-31T08:03:31.996Z,-2.7222222222221717
2023-12-31T08:04:32.376Z,-2.7222222222221717
2023-12-31T08:05:32.396Z,-2.7222222222221717
2023-12-31T08:06:32.379Z,-2.7222222222221717
2023-12-31T08:07:32.085Z,-2.7222222222221717
2023-12-31T08:08:32.285Z,-2.7222222222221717
2023-12-31T08:09:32.313Z,-2.7222222222221717
2023-12-31T08:10:32.305Z,-2.7222222222221717
2023-12-31T08:11:31.950Z,-2.7777777777777146
2023-12-31T08:12:32.325Z,-2.7777777777777146
2023-12-31T08:13:32.340Z,-2.7777777777777146
2023-12-31T08:14:32.334Z,-2.7777777777777146
2023-12-31T08:15:31.959Z,-2.7777777777777146
2023-12-31T08:16:32.314Z,-2.7777777777777146
2023-12-31T08:17:32.346Z,-2.7777777777777146
2023-12-31T08:18:32.399Z,-2.7777777777777146
2023-12-31T08:19:31.976Z,-2.7777777777777146
2023-12-31T08:20:32.304Z,-2.7222222222221717
2023-12-31T08:21:32.339Z,-2.7222222222221717
2023-12-31T08:22:32.316Z,-2.7222222222221717
2023-12-31T08:23:31.941Z,-2.7222222222221717
2023-12-31T08:24:32.293Z,-2.7222222222221717
2023-12-31T08:25:32.368Z,-2.7222222222221717
2023-12-31T08:26:32.307Z,-2.7222222222221717
2023-12-31T08:27:31.954Z,-2.7222222222221717
2023-12-31T08:28:32.314Z,-2.7222222222221717
2023-12-31T08:29:32.440Z,-2.7222222222221717
2023-12-31T08:30:32.332Z,-2.7222222222221717
2023-12-31T08:31:31.956Z,-2.7777777777777146
2023-12-31T08:32:32.331Z,-2.7777777777777146
2023-12-31T08:33:32.330Z,-2.7777777777777146
2023-12-31T08:34:32.351Z,-2.7222222222221717
2023-12-31T08:35:31.969Z,-2.7222222222221717
2023-12-31T08:36:32.298Z,-2.7222222222221717
2023-12-31T08:37:32.372Z,-2.7222222222221717
2023-12-31T08:38:32.304Z,-2.611111111111086
2023-12-31T08:39:32.075Z,-2.611111111111086
2023-12-31T08:40:32.489Z,-2.7222222222221717
2023-12-31T08:41:32.332Z,-2.7222222222221717
2023-12-31T08:42:32.294Z,-2.7222222222221717
2023-12-31T08:43:32.178Z,-2.7222222222221717
2023-12-31T08:44:32.346Z,-2.7222222222221717
2023-12-31T08:45:32.324Z,-2.7222222222221717
2023-12-31T08:46:32.454Z,-2.7222222222221717
2023-12-31T08:47:32.004Z,-2.7222222222221717
2023-12-31T08:48:32.376Z,-2.7222222222221717
2023-12-31T08:49:32.334Z,-2.7222222222221717
2023-12-31T08:50:32.337Z,-2.7222222222221717
2023-12-31T08:51:31.918Z,-2.7222222222221717
2023-12-31T08:52:32.335Z,-2.7222222222221717
2023-12-31T08:53:32.312Z,-2.7222222222221717
2023-12-31T08:54:32.286Z,-2.7222222222221717
2023-12-31T08:55:31.997Z,-2.7222222222221717